Time;durP1;ratioP1;P1;durP2;ratioP2;P2;SDS_P1;SDS_P2;PMS_P1;PMS_P2;Temp;Humidity;BMP_temperature;BMP_pressure;BME280_temperature;BME280_humidity;BME280_pressure;Samples;Min_cycle;Max_cycle;Signal;HPM_P1;HPM_P2
2021/05/28 00:00:48;;;;;;;;;;;10.70;99.90;;;;;;5091850;28;20008;-69
2021/05/28 00:03:13;;;;;;;;;;;10.70;99.90;;;;;;5091707;28;19916;-69
2021/05/28 00:05:40;;;;;;;;;;;10.70;99.90;;;;;;5091188;28;19961;-70
2021/05/28 00:08:06;;;;;;;;;;;10.70;99.90;;;;;;5091861;28;19951;-69
2021/05/28 00:10:31;;;;;;;;;;;10.70;99.90;;;;;;5091908;28;19958;-69
2021/05/28 00:12:57;;;;;;;;;;;10.70;99.90;;;;;;5091898;28;19908;-69
2021/05/28 00:15:23;;;;;;;;;;;10.80;99.90;;;;;;5091501;28;19919;-69
2021/05/28 00:17:48;;;;;;;;;;;10.70;99.90;;;;;;5090777;28;19995;-69
2021/05/28 00:20:14;;;;;;;;;;;10.70;99.90;;;;;;5091501;28;20004;-69
2021/05/28 00:22:41;;;;;;;;;;;10.50;99.90;;;;;;5091564;28;19915;-69
2021/05/28 00:25:07;;;;;;;;;;;10.30;99.90;;;;;;5091554;28;19931;-69
2021/05/28 00:27:32;;;;;;;;;;;10.20;99.90;;;;;;5090791;28;20364;-69
2021/05/28 00:29:58;;;;;;;;;;;10.10;99.90;;;;;;5085878;28;20288;-69
2021/05/28 00:32:24;;;;;;;;;;;10.10;99.90;;;;;;5091239;28;20394;-69
2021/05/28 00:34:50;;;;;;;;;;;10.10;99.90;;;;;;5091485;28;19955;-72
2021/05/28 00:37:16;;;;;;;;;;;10.10;99.90;;;;;;5090581;28;19908;-69
2021/05/28 00:39:41;;;;;;;;;;;10.10;99.90;;;;;;5091310;28;19912;-69
2021/05/28 00:42:07;;;;;;;;;;;10.10;99.90;;;;;;5091276;28;19946;-69
2021/05/28 00:44:33;;;;;;;;;;;10.10;99.90;;;;;;5091136;28;19908;-69
2021/05/28 00:46:58;;;;;;;;;;;10.10;99.90;;;;;;5090353;28;20284;-70
2021/05/28 00:49:24;;;;;;;;;;;10.10;99.90;;;;;;5091040;28;19951;-68
2021/05/28 00:51:50;;;;;;;;;;;10.10;99.90;;;;;;5091366;28;20107;-69
2021/05/28 00:54:15;;;;;;;;;;;10.10;99.90;;;;;;5091333;28;19934;-69
2021/05/28 00:56:41;;;;;;;;;;;10.10;99.90;;;;;;5090556;28;19908;-69
2021/05/28 00:59:07;;;;;;;;;;;10.10;99.90;;;;;;5085629;28;20311;-69
2021/05/28 01:01:33;;;;;;;;;;;10.00;99.90;;;;;;5090854;28;19958;-69
2021/05/28 01:03:59;;;;;;;;;;;10.00;99.90;;;;;;5091016;28;19973;-69
2021/05/28 01:06:25;;;;;;;;;;;10.00;99.90;;;;;;5094022;28;19916;-71
2021/05/28 01:08:51;;;;;;;;;;;10.00;99.90;;;;;;5095541;28;20260;-70
2021/05/28 01:11:16;;;;;;;;;;;10.00;99.90;;;;;;5095204;28;19932;-69
2021/05/28 01:13:42;;;;;;;;;;;10.00;99.90;;;;;;5095007;28;19908;-69
2021/05/28 01:16:07;;;;;;;;;;;10.00;99.90;;;;;;5094237;28;20361;-69
2021/05/28 01:18:33;;;;;;;;;;;10.00;99.90;;;;;;5094920;28;19908;-71
2021/05/28 01:20:58;;;;;;;;;;;9.90;99.90;;;;;;5095080;28;20078;-69
2021/05/28 01:23:24;;;;;;;;;;;9.90;99.90;;;;;;5094918;28;19915;-69
2021/05/28 01:25:49;;;;;;;;;;;9.80;99.90;;;;;;5094000;28;19961;-69
2021/05/28 01:28:15;;;;;;;;;;;9.80;99.90;;;;;;5089188;28;19912;-73
2021/05/28 01:30:40;;;;;;;;;;;9.70;99.90;;;;;;5094550;28;19912;-69
2021/05/28 01:33:06;;;;;;;;;;;9.70;99.90;;;;;;5094844;28;19912;-69
2021/05/28 01:35:31;;;;;;;;;;;9.70;99.90;;;;;;5094363;28;19995;-70
2021/05/28 01:37:57;;;;;;;;;;;9.70;99.90;;;;;;5093965;28;19915;-69
2021/05/28 01:40:23;;;;;;;;;;;9.70;99.90;;;;;;5094438;28;19916;-69
2021/05/28 01:42:49;;;;;;;;;;;9.70;99.90;;;;;;5094571;28;20343;-69
2021/05/28 01:45:15;;;;;;;;;;;9.60;99.90;;;;;;5091524;28;20000;-69
2021/05/28 01:47:40;;;;;;;;;;;9.60;99.90;;;;;;5093248;28;20002;-69
2021/05/28 01:50:08;;;;;;;;;;;9.60;99.90;;;;;;5092531;28;20441;-69
2021/05/28 01:52:33;;;;;;;;;;;9.60;99.90;;;;;;5091224;28;20367;-72
2021/05/28 01:54:59;;;;;;;;;;;9.60;99.90;;;;;;5091042;28;19920;-70
2021/05/28 01:57:25;;;;;;;;;;;9.60;99.90;;;;;;5090317;28;20349;-69
2021/05/28 01:59:50;;;;;;;;;;;9.50;99.90;;;;;;5085084;28;19986;-70
2021/05/28 02:02:16;;;;;;;;;;;9.50;99.90;;;;;;5091023;28;19916;-72
2021/05/28 02:04:42;;;;;;;;;;;9.50;99.90;;;;;;5091649;28;19931;-69
2021/05/28 02:07:08;;;;;;;;;;;9.50;99.90;;;;;;5091976;28;19912;-70
2021/05/28 02:09:34;;;;;;;;;;;9.50;99.90;;;;;;5093930;28;20289;-71
2021/05/28 02:12:00;;;;;;;;;;;9.60;99.90;;;;;;5093912;28;19983;-69
2021/05/28 02:14:26;;;;;;;;;;;9.70;99.90;;;;;;5093394;28;19908;-69
2021/05/28 02:16:51;;;;;;;;;;;9.70;99.90;;;;;;5092087;28;19915;-69
2021/05/28 02:19:17;;;;;;;;;;;9.80;99.90;;;;;;5093925;28;19915;-69
2021/05/28 02:21:42;;;;;;;;;;;9.80;99.90;;;;;;5093823;28;19948;-70
2021/05/28 02:24:12;;;;;;;;;;;9.90;99.90;;;;;;5093783;28;19912;-70
2021/05/28 02:26:38;;;;;;;;;;;9.90;99.90;;;;;;5092721;28;19912;-69
2021/05/28 02:29:03;;;;;;;;;;;9.90;99.90;;;;;;5087921;28;20330;-69
2021/05/28 02:31:29;;;;;;;;;;;10.00;99.90;;;;;;5093598;28;19998;-69
2021/05/28 02:33:54;;;;;;;;;;;10.00;99.90;;;;;;5093424;28;20357;-70
2021/05/28 02:36:20;;;;;;;;;;;9.90;99.90;;;;;;5092725;28;19912;-70
2021/05/28 02:38:45;;;;;;;;;;;9.90;99.90;;;;;;5093179;28;19931;-69
2021/05/28 02:41:10;;;;;;;;;;;9.80;99.90;;;;;;5093129;28;19916;-71
2021/05/28 02:43:36;;;;;;;;;;;9.70;99.90;;;;;;5092865;28;19951;-70
2021/05/28 02:46:02;;;;;;;;;;;9.70;99.90;;;;;;5092167;28;19937;-69
2021/05/28 02:48:28;;;;;;;;;;;9.60;99.90;;;;;;5093095;28;19915;-69
2021/05/28 02:50:53;;;;;;;;;;;9.60;99.90;;;;;;5093051;28;19912;-69
2021/05/28 02:53:19;;;;;;;;;;;9.60;99.90;;;;;;5093030;28;19912;-70
2021/05/28 02:55:45;;;;;;;;;;;9.60;99.90;;;;;;5092236;28;19908;-69
2021/05/28 02:58:11;;;;;;;;;;;9.50;99.90;;;;;;5088322;28;19986;-69
2021/05/28 03:00:36;;;;;;;;;;;9.50;99.90;;;;;;5091753;28;19912;-69
2021/05/28 03:03:02;;;;;;;;;;;9.50;99.90;;;;;;5093154;28;19908;-70
2021/05/28 03:05:27;;;;;;;;;;;9.40;99.90;;;;;;5092728;28;20423;-69
2021/05/28 03:07:53;;;;;;;;;;;9.50;99.90;;;;;;5091997;28;20014;-71
2021/05/28 03:10:18;;;;;;;;;;;9.40;99.90;;;;;;5092838;28;19935;-69
2021/05/28 03:12:44;;;;;;;;;;;9.40;99.90;;;;;;5092521;28;20447;-69
2021/05/28 03:15:10;;;;;;;;;;;9.50;99.90;;;;;;5092297;28;19916;-72
2021/05/28 03:17:36;;;;;;;;;;;9.50;99.90;;;;;;5091854;28;19915;-72
2021/05/28 03:20:04;;;;;;;;;;;9.50;99.90;;;;;;5092550;28;20373;-70
2021/05/28 03:22:36;;;;;;;;;;;9.50;99.90;;;;;;5092531;28;20006;-70
2021/05/28 03:25:06;;;;;;;;;;;9.60;99.90;;;;;;5092907;28;19908;-69
2021/05/28 03:27:31;;;;;;;;;;;9.60;99.90;;;;;;5089959;28;20288;-69
2021/05/28 03:29:57;;;;;;;;;;;9.60;99.90;;;;;;5086922;28;20002;-69
2021/05/28 03:32:23;;;;;;;;;;;9.70;99.90;;;;;;5092190;28;19962;-71
2021/05/28 03:34:49;;;;;;;;;;;9.70;99.90;;;;;;5092071;28;20323;-69
2021/05/28 03:37:14;;;;;;;;;;;9.70;99.90;;;;;;5091554;28;19961;-70
2021/05/28 03:39:40;;;;;;;;;;;9.60;99.90;;;;;;5092027;28;19966;-70
2021/05/28 03:42:05;;;;;;;;;;;9.50;99.90;;;;;;5092079;28;19908;-69
2021/05/28 03:44:31;;;;;;;;;;;9.50;99.90;;;;;;5091729;28;19915;-69
2021/05/28 03:46:57;;;;;;;;;;;9.40;99.90;;;;;;5091062;28;19959;-70
2021/05/28 03:49:22;;;;;;;;;;;9.30;99.90;;;;;;5091950;28;19916;-70
2021/05/28 03:51:48;;;;;;;;;;;9.10;99.90;;;;;;5092011;28;20370;-69
2021/05/28 03:54:13;;;;;;;;;;;9.10;99.90;;;;;;5091961;28;19909;-69
2021/05/28 03:56:39;;;;;;;;;;;9.00;99.90;;;;;;5090921;28;19998;-70
2021/05/28 03:59:05;;;;;;;;;;;9.00;99.90;;;;;;5086181;28;20380;-69
2021/05/28 04:01:31;;;;;;;;;;;9.00;99.90;;;;;;5091484;28;19912;-72
2021/05/28 04:03:56;;;;;;;;;;;9.00;99.90;;;;;;5091724;28;19908;-69
2021/05/28 04:06:21;;;;;;;;;;;8.90;99.90;;;;;;5091284;28;19916;-69
2021/05/28 04:08:47;;;;;;;;;;;8.90;99.90;;;;;;5091471;28;19908;-69
2021/05/28 04:11:12;;;;;;;;;;;8.80;99.90;;;;;;5091494;28;19930;-72
2021/05/28 04:13:38;;;;;;;;;;;8.70;99.90;;;;;;5091529;28;20003;-69
2021/05/28 04:16:04;;;;;;;;;;;8.70;99.90;;;;;;5090184;28;19915;-70
2021/05/28 04:18:29;;;;;;;;;;;8.70;99.90;;;;;;5090893;28;19912;-70
2021/05/28 04:20:55;;;;;;;;;;;8.60;99.90;;;;;;5091297;28;19908;-71
2021/05/28 04:23:21;;;;;;;;;;;8.60;99.90;;;;;;5091284;28;19912;-69
2021/05/28 04:25:47;;;;;;;;;;;8.60;99.90;;;;;;5090361;28;19939;-69
2021/05/28 04:28:12;;;;;;;;;;;8.70;99.90;;;;;;5086432;28;19919;-69
2021/05/28 04:30:38;;;;;;;;;;;8.70;99.90;;;;;;5090333;28;19908;-69
2021/05/28 04:33:04;;;;;;;;;;;8.80;99.90;;;;;;5091206;28;19908;-68
2021/05/28 04:35:29;;;;;;;;;;;8.80;99.90;;;;;;5091097;28;20026;-71
2021/05/28 04:37:55;;;;;;;;;;;8.90;99.90;;;;;;5090634;28;19908;-72
2021/05/28 04:40:21;;;;;;;;;;;8.90;99.90;;;;;;5090740;28;20011;-70
2021/05/28 04:42:46;;;;;;;;;;;8.90;99.90;;;;;;5091178;28;20423;-70
2021/05/28 04:45:12;;;;;;;;;;;9.00;99.90;;;;;;5090628;28;19961;-71
2021/05/28 04:47:37;;;;;;;;;;;9.10;99.90;;;;;;5090117;28;19912;-72
2021/05/28 04:50:03;;;;;;;;;;;9.20;99.90;;;;;;5091142;28;19908;-74
2021/05/28 04:52:28;;;;;;;;;;;9.40;99.90;;;;;;5088411;28;19920;-72
2021/05/28 04:54:54;;;;;;;;;;;9.40;99.90;;;;;;5084129;28;19954;-72
2021/05/28 04:57:20;;;;;;;;;;;9.50;99.90;;;;;;5074769;28;19912;-74
2021/05/28 04:59:45;;;;;;;;;;;9.50;99.90;;;;;;5085103;28;19939;-71
2021/05/28 05:02:11;;;;;;;;;;;9.50;99.90;;;;;;5086933;28;19912;-71
2021/05/28 05:04:36;;;;;;;;;;;9.60;99.90;;;;;;5100906;28;19907;-71
2021/05/28 05:07:02;;;;;;;;;;;9.70;99.90;;;;;;5090406;28;20011;-74
2021/05/28 05:09:27;;;;;;;;;;;9.80;99.90;;;;;;5088325;28;20286;-71
2021/05/28 05:11:53;;;;;;;;;;;9.80;99.90;;;;;;5088762;28;19987;-71
2021/05/28 05:14:19;;;;;;;;;;;9.90;99.90;;;;;;5088163;28;19950;-71
2021/05/28 05:16:45;;;;;;;;;;;10.00;99.90;;;;;;5088720;28;19960;-72
2021/05/28 05:19:11;;;;;;;;;;;10.10;99.90;;;;;;5096174;28;19985;-74
2021/05/28 05:21:36;;;;;;;;;;;10.30;99.90;;;;;;5096267;28;20041;-73
2021/05/28 05:24:02;;;;;;;;;;;10.40;99.90;;;;;;5086712;28;19916;-71
2021/05/28 05:26:27;;;;;;;;;;;10.60;99.90;;;;;;5095258;28;19923;-71
2021/05/28 05:28:53;;;;;;;;;;;10.80;99.90;;;;;;5084564;28;19930;-73
2021/05/28 05:31:18;;;;;;;;;;;11.00;99.90;;;;;;5092443;28;20382;-71
2021/05/28 05:33:43;;;;;;;;;;;11.10;99.90;;;;;;5087339;28;19908;-70
2021/05/28 05:36:09;;;;;;;;;;;11.20;99.90;;;;;;5079846;28;20002;-71
2021/05/28 05:38:34;;;;;;;;;;;11.30;99.90;;;;;;5092272;28;19916;-72
2021/05/28 05:41:00;;;;;;;;;;;11.40;99.90;;;;;;5092697;28;20006;-71
2021/05/28 05:43:25;;;;;;;;;;;11.60;99.90;;;;;;5085222;28;19995;-71
2021/05/28 05:45:51;;;;;;;;;;;11.70;99.90;;;;;;5089056;28;20411;-73
2021/05/28 05:48:16;;;;;;;;;;;12.00;99.90;;;;;;5089223;28;19912;-70
2021/05/28 05:50:42;;;;;;;;;;;12.40;99.90;;;;;;5084934;28;19908;-71
2021/05/28 05:53:07;;;;;;;;;;;12.50;99.90;;;;;;5092188;28;19908;-73
2021/05/28 05:55:33;;;;;;;;;;;12.50;99.90;;;;;;5099938;28;20102;-74
2021/05/28 05:57:58;;;;;;;;;;;12.40;99.90;;;;;;5081661;28;20517;-70
2021/05/28 06:00:24;;;;;;;;;;;12.40;99.90;;;;;;5089143;28;19915;-71
2021/05/28 06:02:50;;;;;;;;;;;12.30;99.90;;;;;;5095614;28;19908;-71
2021/05/28 06:05:18;;;;;;;;;;;12.20;99.90;;;;;;5106936;28;19908;-74
2021/05/28 06:07:43;;;;;;;;;;;12.30;99.90;;;;;;5087285;28;19912;-73
2021/05/28 06:10:10;;;;;;;;;;;12.40;99.90;;;;;;5077109;28;19919;-71
2021/05/28 06:12:35;;;;;;;;;;;12.40;99.90;;;;;;5093018;28;19909;-71
2021/05/28 06:15:01;;;;;;;;;;;12.50;99.90;;;;;;5085863;28;19969;-71
2021/05/28 06:17:26;;;;;;;;;;;12.60;99.90;;;;;;5079849;28;19908;-70
2021/05/28 06:19:52;;;;;;;;;;;12.60;99.90;;;;;;5100572;28;19908;-74
2021/05/28 06:22:21;;;;;;;;;;;12.70;99.90;;;;;;5090509;28;20382;-72
2021/05/28 06:24:48;;;;;;;;;;;12.80;99.90;;;;;;5096133;28;19915;-72
2021/05/28 06:27:13;;;;;;;;;;;13.00;99.90;;;;;;5092281;28;20008;-71
2021/05/28 06:29:39;;;;;;;;;;;13.10;99.90;;;;;;5084144;28;19946;-72
2021/05/28 06:32:05;;;;;;;;;;;13.40;99.90;;;;;;5090243;28;20426;-71
2021/05/28 06:34:30;;;;;;;;;;;13.60;99.90;;;;;;5091145;28;19918;-71
2021/05/28 06:36:56;;;;;;;;;;;13.90;99.90;;;;;;5074962;28;19913;-76
2021/05/28 06:39:21;;;;;;;;;;;13.90;99.90;;;;;;5080645;28;19917;-71
2021/05/28 06:41:47;;;;;;;;;;;14.00;99.90;;;;;;5085146;28;20715;-71
2021/05/28 06:44:13;;;;;;;;;;;14.10;99.90;;;;;;5074935;28;19908;-76
2021/05/28 06:46:38;;;;;;;;;;;14.20;99.90;;;;;;5084244;28;20023;-74
2021/05/28 06:49:04;;;;;;;;;;;14.20;99.90;;;;;;5096146;28;19961;-76
2021/05/28 06:51:30;;;;;;;;;;;14.40;99.90;;;;;;5083699;28;20317;-73
2021/05/28 06:53:55;;;;;;;;;;;14.40;99.90;;;;;;5084851;28;19912;-71
2021/05/28 06:56:21;;;;;;;;;;;14.50;99.90;;;;;;5089106;28;19912;-72
2021/05/28 06:58:49;;;;;;;;;;;14.60;99.90;;;;;;5087645;28;19908;-75
2021/05/28 07:01:15;;;;;;;;;;;14.60;99.90;;;;;;5089985;28;20391;-71
2021/05/28 07:03:40;;;;;;;;;;;14.60;99.90;;;;;;5092591;28;19908;-71
2021/05/28 07:06:07;;;;;;;;;;;14.70;99.90;;;;;;5092009;28;19952;-71
2021/05/28 07:08:32;;;;;;;;;;;14.70;99.90;;;;;;5093005;28;19912;-71
2021/05/28 07:10:58;;;;;;;;;;;14.70;99.90;;;;;;5092891;28;19915;-71
2021/05/28 07:13:23;;;;;;;;;;;14.80;99.90;;;;;;5092795;28;19912;-72
2021/05/28 07:15:49;;;;;;;;;;;14.90;99.90;;;;;;5091883;28;19958;-74
2021/05/28 07:18:14;;;;;;;;;;;15.40;99.90;;;;;;5092751;28;20003;-71
2021/05/28 07:20:40;;;;;;;;;;;15.70;99.90;;;;;;5092740;28;20301;-72
2021/05/28 07:23:05;;;;;;;;;;;16.20;99.90;;;;;;5092445;28;19916;-73
2021/05/28 07:25:31;;;;;;;;;;;16.70;99.90;;;;;;5092571;28;20333;-72
2021/05/28 07:27:58;;;;;;;;;;;17.00;99.90;;;;;;5089210;28;19912;-70
2021/05/28 07:30:24;;;;;;;;;;;16.90;99.90;;;;;;5089856;28;20365;-72
2021/05/28 07:32:49;;;;;;;;;;;17.10;99.90;;;;;;5092457;28;19908;-72
2021/05/28 07:35:15;;;;;;;;;;;17.90;99.90;;;;;;5092522;28;20057;-70
2021/05/28 07:37:41;;;;;;;;;;;18.60;99.90;;;;;;5091667;28;19949;-70
2021/05/28 07:40:08;;;;;;;;;;;18.70;99.90;;;;;;5092402;28;19951;-70
2021/05/28 07:42:34;;;;;;;;;;;18.40;99.90;;;;;;5091735;28;19908;-73
2021/05/28 07:44:59;;;;;;;;;;;18.30;99.90;;;;;;5091623;28;19999;-70
2021/05/28 07:47:25;;;;;;;;;;;18.00;99.90;;;;;;5091333;28;20285;-69
2021/05/28 07:49:51;;;;;;;;;;;18.00;99.90;;;;;;5091858;28;19998;-69
2021/05/28 07:52:16;;;;;;;;;;;18.00;99.90;;;;;;5092004;28;20449;-70
2021/05/28 07:54:42;;;;;;;;;;;17.80;99.90;;;;;;5090652;28;19908;-71
2021/05/28 07:57:08;;;;;;;;;;;17.50;99.90;;;;;;5091017;28;19908;-70
2021/05/28 07:59:33;;;;;;;;;;;17.30;99.90;;;;;;5082390;28;20273;-70
2021/05/28 08:01:59;;;;;;;;;;;17.20;99.90;;;;;;5082971;28;19919;-69
2021/05/28 08:04:24;;;;;;;;;;;17.20;99.90;;;;;;5091695;28;19908;-71
2021/05/28 08:06:50;;;;;;;;;;;17.20;99.90;;;;;;5090758;28;20336;-73
2021/05/28 08:09:15;;;;;;;;;;;17.20;99.90;;;;;;5091669;28;19916;-69
2021/05/28 08:11:41;;;;;;;;;;;17.20;99.90;;;;;;5091675;28;19958;-70
2021/05/28 08:14:07;;;;;;;;;;;17.30;99.90;;;;;;5090901;28;19912;-69
2021/05/28 08:16:33;;;;;;;;;;;17.20;99.90;;;;;;5090531;28;19915;-70
2021/05/28 08:18:58;;;;;;;;;;;17.20;99.90;;;;;;5091292;28;20029;-72
2021/05/28 08:21:24;;;;;;;;;;;17.20;99.90;;;;;;5092014;28;19919;-69
2021/05/28 08:23:49;;;;;;;;;;;17.30;99.90;;;;;;5091417;28;20280;-69
2021/05/28 08:26:15;;;;;;;;;;;17.70;99.90;;;;;;5090696;28;19908;-70
2021/05/28 08:28:41;;;;;;;;;;;18.10;99.90;;;;;;5085996;28;20323;-72
2021/05/28 08:31:07;;;;;;;;;;;18.30;98.20;;;;;;5090757;28;19999;-71
2021/05/28 08:33:33;;;;;;;;;;;18.20;97.10;;;;;;5091047;28;19912;-73
2021/05/28 08:35:58;;;;;;;;;;;18.00;98.10;;;;;;5090307;28;19920;-70
2021/05/28 08:38:24;;;;;;;;;;;17.70;97.80;;;;;;5091167;28;19908;-70
2021/05/28 08:40:50;;;;;;;;;;;17.60;97.00;;;;;;5090866;28;19951;-70
2021/05/28 08:43:15;;;;;;;;;;;17.50;97.50;;;;;;5090847;28;19952;-70
2021/05/28 08:45:45;;;;;;;;;;;17.40;97.30;;;;;;5090051;28;19943;-70
2021/05/28 08:48:12;;;;;;;;;;;17.30;98.10;;;;;;5090897;28;19952;-70
2021/05/28 08:50:38;;;;;;;;;;;17.20;98.60;;;;;;5091148;28;19912;-70
2021/05/28 08:53:05;;;;;;;;;;;17.00;98.30;;;;;;5088641;28;20330;-73
2021/05/28 08:55:30;;;;;;;;;;;16.60;97.70;;;;;;5089411;28;19916;-71
2021/05/28 08:57:56;;;;;;;;;;;16.30;99.10;;;;;;5088187;28;19909;-70
2021/05/28 09:00:23;;;;;;;;;;;16.40;99.90;;;;;;5084462;28;19908;-71
2021/05/28 09:02:49;;;;;;;;;;;16.80;99.90;;;;;;5090763;28;19908;-71
2021/05/28 09:05:16;;;;;;;;;;;17.20;97.70;;;;;;5091209;28;19908;-70
2021/05/28 09:08:02;;;;;;;;;;;17.50;97.90;;;;;;5090199;28;20254;-71
2021/05/28 09:10:34;;;;;;;;;;;17.70;97.40;;;;;;5091630;28;20006;-72
2021/05/28 09:13:06;;;;;;;;;;;18.00;97.80;;;;;;5091895;28;19908;-70
2021/05/28 09:15:32;;;;;;;;;;;18.20;97.20;;;;;;5090262;28;19915;-71
2021/05/28 09:17:57;;;;;;;;;;;18.60;97.40;;;;;;5090265;28;19912;-72
2021/05/28 09:20:23;;;;;;;;;;;18.70;97.00;;;;;;5090994;28;19959;-70
2021/05/28 09:23:05;;;;;;;;;;;18.60;95.50;;;;;;5091236;28;19995;-70
2021/05/28 09:25:49;;;;;;;;;;;18.20;96.30;;;;;;5092331;28;19912;-70
2021/05/28 09:28:14;;;;;;;;;;;17.80;96.60;;;;;;5089835;28;19912;-70
2021/05/28 09:30:40;;;;;;;;;;;17.50;96.20;;;;;;5094679;28;19912;-73
2021/05/28 09:33:05;;;;;;;;;;;17.30;96.80;;;;;;5094927;28;19908;-70
2021/05/28 09:35:31;;;;;;;;;;;17.30;97.50;;;;;;5094735;28;20311;-71
2021/05/28 09:37:56;;;;;;;;;;;17.30;96.50;;;;;;5094380;28;20000;-72
2021/05/28 09:40:27;;;;;;;;;;;17.20;96.90;;;;;;5094435;28;19923;-71
2021/05/28 09:42:52;;;;;;;;;;;17.30;96.90;;;;;;5094781;28;19998;-74
2021/05/28 09:45:19;;;;;;;;;;;17.30;96.70;;;;;;5094358;28;19948;-77
2021/05/28 09:47:44;;;;;;;;;;;17.20;97.50;;;;;;5093682;28;20007;-70
2021/05/28 09:50:12;;;;;;;;;;;17.10;97.70;;;;;;5093925;28;20395;-70
2021/05/28 09:52:38;;;;;;;;;;;16.90;97.60;;;;;;5094624;28;19908;-70
2021/05/28 09:55:08;;;;;;;;;;;17.00;97.90;;;;;;5088712;28;19915;-70
2021/05/28 09:57:35;;;;;;;;;;;17.00;97.30;;;;;;5093498;28;19909;-70
2021/05/28 10:00:02;;;;;;;;;;;17.00;97.00;;;;;;5093460;28;20001;-70
2021/05/28 10:02:33;;;;;;;;;;;17.00;98.40;;;;;;5090934;28;19908;-71
2021/05/28 10:04:59;;;;;;;;;;;17.50;99.20;;;;;;5094275;28;20412;-71
2021/05/28 10:07:26;;;;;;;;;;;18.30;98.40;;;;;;5093051;28;19923;-71
2021/05/28 10:09:52;;;;;;;;;;;19.00;97.20;;;;;;5094089;28;19909;-72
2021/05/28 10:12:18;;;;;;;;;;;19.60;95.80;;;;;;5094216;28;19953;-71
2021/05/28 10:14:44;;;;;;;;;;;19.90;94.60;;;;;;5094127;28;19912;-71
2021/05/28 10:17:10;;;;;;;;;;;20.30;94.00;;;;;;5093396;28;19909;-72
2021/05/28 10:19:37;;;;;;;;;;;20.70;92.90;;;;;;5094085;28;19919;-75
2021/05/28 10:22:02;;;;;;;;;;;20.80;92.40;;;;;;5093729;28;19908;-71
2021/05/28 10:24:29;;;;;;;;;;;20.80;92.10;;;;;;5093726;28;19908;-72
2021/05/28 10:26:54;;;;;;;;;;;20.40;92.30;;;;;;5093141;28;19979;-71
2021/05/28 10:29:26;;;;;;;;;;;19.60;92.60;;;;;;5088436;28;19908;-71
2021/05/28 10:31:56;;;;;;;;;;;18.70;93.30;;;;;;5093351;28;19912;-72
2021/05/28 10:34:22;;;;;;;;;;;18.20;94.30;;;;;;5093560;28;19970;-75
2021/05/28 10:36:48;;;;;;;;;;;17.60;94.60;;;;;;5093056;28;20418;-75
2021/05/28 10:39:15;;;;;;;;;;;17.50;96.80;;;;;;5093217;28;19908;-72
2021/05/28 10:41:44;;;;;;;;;;;17.30;95.50;;;;;;5093531;28;20284;-72
2021/05/28 10:44:11;;;;;;;;;;;17.20;95.70;;;;;;5093488;28;19951;-74
2021/05/28 10:46:49;;;;;;;;;;;17.50;96.40;;;;;;5092629;28;19920;-70
2021/05/28 10:49:15;;;;;;;;;;;17.90;96.30;;;;;;5092911;28;19939;-70
2021/05/28 10:51:41;;;;;;;;;;;18.20;95.80;;;;;;5093753;28;19951;-73
2021/05/28 10:54:06;;;;;;;;;;;18.40;95.10;;;;;;5089006;28;19916;-74
2021/05/28 10:56:35;;;;;;;;;;;18.40;95.50;;;;;;5101504;28;19908;-71
2021/05/28 10:59:01;;;;;;;;;;;18.60;94.30;;;;;;5085706;28;19914;-74
2021/05/28 11:03:59;;;;;;;;;;;18.60;95.80;;;;;;5093595;28;19954;-76
2021/05/28 11:06:24;;;;;;;;;;;19.10;96.00;;;;;;5092600;28;20005;-74
2021/05/28 11:08:51;;;;;;;;;;;19.10;94.30;;;;;;5092953;28;20003;-72
2021/05/28 11:11:35;;;;;;;;;;;18.90;94.90;;;;;;5092885;28;20365;-72
2021/05/28 11:14:02;;;;;;;;;;;18.70;93.90;;;;;;5092965;28;20242;-76
2021/05/28 11:16:28;;;;;;;;;;;18.70;94.70;;;;;;5091994;28;19919;-70
2021/05/28 11:18:53;;;;;;;;;;;18.80;93.30;;;;;;5092283;28;19915;-70
2021/05/28 11:21:20;;;;;;;;;;;18.80;94.80;;;;;;5092908;28;20281;-72
2021/05/28 11:23:47;;;;;;;;;;;18.80;93.80;;;;;;5091858;28;19920;-71
2021/05/28 11:26:26;;;;;;;;;;;18.50;93.60;;;;;;5091890;28;20003;-70
2021/05/28 11:28:53;;;;;;;;;;;18.10;94.20;;;;;;5087304;28;19912;-69
2021/05/28 11:31:20;;;;;;;;;;;17.90;93.80;;;;;;5091947;28;19999;-70
2021/05/28 11:33:46;;;;;;;;;;;17.70;94.20;;;;;;5092350;28;19983;-70
2021/05/28 11:36:18;;;;;;;;;;;17.50;93.60;;;;;;5091576;28;20004;-70
2021/05/28 11:38:52;;;;;;;;;;;17.50;94.40;;;;;;5092772;28;20000;-70
2021/05/28 11:41:18;;;;;;;;;;;17.40;93.90;;;;;;5092169;28;20288;-70
2021/05/28 11:43:43;;;;;;;;;;;17.40;93.60;;;;;;5092400;28;19915;-71
2021/05/28 11:46:09;;;;;;;;;;;17.60;95.80;;;;;;5091576;28;19908;-69
2021/05/28 11:48:34;;;;;;;;;;;18.00;95.50;;;;;;5091990;28;19919;-70
2021/05/28 11:51:01;;;;;;;;;;;18.80;94.50;;;;;;5091739;28;19908;-70
2021/05/28 11:53:30;;;;;;;;;;;19.30;91.50;;;;;;5086995;28;19916;-70
2021/05/28 11:55:56;;;;;;;;;;;19.80;92.10;;;;;;5091136;28;19912;-71
2021/05/28 11:58:23;;;;;;;;;;;20.00;91.60;;;;;;5086790;28;20333;-71
2021/05/28 12:00:50;;;;;;;;;;;19.80;91.20;;;;;;5086395;28;20007;-70
2021/05/28 12:03:16;;;;;;;;;;;19.50;88.70;;;;;;5092172;28;19950;-72
2021/05/28 12:05:42;;;;;;;;;;;19.40;90.00;;;;;;5091710;28;19908;-69
2021/05/28 12:08:11;;;;;;;;;;;18.80;89.10;;;;;;5091789;28;20003;-73
2021/05/28 12:10:39;;;;;;;;;;;18.20;89.10;;;;;;5092319;28;19912;-70
2021/05/28 12:13:06;;;;;;;;;;;17.80;90.90;;;;;;5090743;28;20349;-70
2021/05/28 12:15:32;;;;;;;;;;;17.60;90.90;;;;;;5090316;28;20339;-70
2021/05/28 12:18:00;;;;;;;;;;;17.40;89.10;;;;;;5091485;28;19916;-73
2021/05/28 12:20:32;;;;;;;;;;;17.30;91.50;;;;;;5091274;28;19915;-74
2021/05/28 12:23:06;;;;;;;;;;;17.40;90.30;;;;;;5070891;28;19912;-76
2021/05/28 12:25:33;;;;;;;;;;;17.60;90.00;;;;;;5071565;28;19909;-70
2021/05/28 12:28:09;;;;;;;;;;;18.00;91.10;;;;;;5070761;28;20336;-70
2021/05/28 12:30:34;;;;;;;;;;;18.30;90.10;;;;;;5109621;28;19908;-73
2021/05/28 12:33:00;;;;;;;;;;;18.10;88.30;;;;;;5111876;28;20340;-70
2021/05/28 12:35:26;;;;;;;;;;;17.90;90.20;;;;;;5111211;28;20332;-70
2021/05/28 12:38:04;;;;;;;;;;;17.90;90.50;;;;;;5110849;28;19950;-70
2021/05/28 12:40:30;;;;;;;;;;;17.80;90.20;;;;;;5111526;28;19926;-70
2021/05/28 12:42:56;;;;;;;;;;;17.90;90.60;;;;;;5112099;28;19995;-70
2021/05/28 12:45:30;;;;;;;;;;;18.30;90.50;;;;;;5111349;28;19912;-75
2021/05/28 12:47:56;;;;;;;;;;;18.70;90.90;;;;;;5109244;28;19960;-69
2021/05/28 12:50:34;;;;;;;;;;;18.80;90.10;;;;;;5111308;28;20288;-70
2021/05/28 12:53:01;;;;;;;;;;;18.70;89.40;;;;;;5108851;28;19915;-69
2021/05/28 12:55:31;;;;;;;;;;;18.40;90.70;;;;;;5092504;28;19999;-69
2021/05/28 12:57:56;;;;;;;;;;;18.30;90.60;;;;;;5089407;28;19908;-70
2021/05/28 13:00:37;;;;;;;;;;;18.60;91.60;;;;;;5084902;28;19954;-71
2021/05/28 13:03:03;;;;;;;;;;;18.90;88.80;;;;;;5091341;28;19912;-73
2021/05/28 13:05:31;;;;;;;;;;;19.30;88.40;;;;;;5091058;28;19966;-74
2021/05/28 13:07:56;;;;;;;;;;;19.30;88.90;;;;;;5090641;28;19912;-70
2021/05/28 13:10:23;;;;;;;;;;;19.30;88.80;;;;;;5091078;28;19912;-70
2021/05/28 13:12:49;;;;;;;;;;;19.30;90.10;;;;;;5090835;28;19912;-71
2021/05/28 13:15:21;;;;;;;;;;;19.50;85.80;;;;;;5091059;28;19915;-70
2021/05/28 13:17:53;;;;;;;;;;;19.70;85.20;;;;;;5090679;28;19908;-70
2021/05/28 13:20:18;;;;;;;;;;;20.00;86.60;;;;;;5090968;28;19916;-70
2021/05/28 13:22:44;;;;;;;;;;;20.40;85.20;;;;;;5091252;28;19908;-69
2021/05/28 13:25:15;;;;;;;;;;;20.90;84.40;;;;;;5090769;28;19908;-72
2021/05/28 13:27:41;;;;;;;;;;;21.30;84.40;;;;;;5089457;28;19916;-70
2021/05/28 13:30:07;;;;;;;;;;;21.80;83.80;;;;;;5086256;28;19908;-69
2021/05/28 13:32:35;;;;;;;;;;;22.20;81.50;;;;;;5090381;28;19909;-69
2021/05/28 13:35:00;;;;;;;;;;;22.50;80.90;;;;;;5090664;28;19970;-70
2021/05/28 13:37:26;;;;;;;;;;;22.30;73.60;;;;;;5089968;28;20430;-72
2021/05/28 13:39:52;;;;;;;;;;;22.30;77.00;;;;;;5090265;28;19916;-73
2021/05/28 13:42:21;;;;;;;;;;;22.10;77.90;;;;;;5091086;28;20011;-69
2021/05/28 13:44:47;;;;;;;;;;;21.70;80.60;;;;;;5090780;28;19912;-70
2021/05/28 13:47:13;;;;;;;;;;;21.40;78.80;;;;;;5089439;28;20008;-73
2021/05/28 13:49:38;;;;;;;;;;;21.00;80.30;;;;;;5090424;28;19912;-73
2021/05/28 13:52:04;;;;;;;;;;;20.70;78.10;;;;;;5090810;28;19916;-71
2021/05/28 13:54:29;;;;;;;;;;;20.70;84.10;;;;;;5085150;28;19969;-72
2021/05/28 13:56:55;;;;;;;;;;;21.00;78.40;;;;;;5102701;28;20604;-71
2021/05/28 13:59:20;;;;;;;;;;;21.10;77.00;;;;;;5086597;28;19912;-74
2021/05/28 14:01:46;;;;;;;;;;;21.10;78.30;;;;;;5088535;28;19953;-71
2021/05/28 14:04:12;;;;;;;;;;;21.40;78.80;;;;;;5090345;28;20343;-71
2021/05/28 14:06:37;;;;;;;;;;;21.70;76.20;;;;;;5090031;28;19999;-71
2021/05/28 14:09:03;;;;;;;;;;;22.10;79.60;;;;;;5090188;28;19908;-72
2021/05/28 14:11:29;;;;;;;;;;;22.50;79.10;;;;;;5090426;28;19916;-71
2021/05/28 14:13:55;;;;;;;;;;;23.10;78.90;;;;;;5093023;28;19930;-74
2021/05/28 14:16:20;;;;;;;;;;;23.60;74.50;;;;;;5093059;28;19912;-71
2021/05/28 14:18:46;;;;;;;;;;;23.80;74.70;;;;;;5093785;28;19908;-72